createdAt,value
2022-08-19T00:00:31.172Z,3.74
2022-08-19T00:01:38.046Z,3.51
2022-08-19T00:02:49.940Z,3.43
2022-08-19T00:03:45.633Z,3.81
2022-08-19T00:04:48.041Z,3.84
2022-08-19T00:05:50.256Z,3.93
2022-08-19T00:06:52.987Z,3.85
2022-08-19T00:07:55.574Z,4.09
2022-08-19T00:08:59.385Z,4.35
2022-08-19T00:10:01.847Z,3.71
2022-08-19T00:11:04.380Z,3.84
2022-08-19T00:12:07.473Z,3.63
2022-08-19T00:13:09.820Z,3.55
2022-08-19T00:14:14.877Z,3.55
2022-08-19T00:15:20.205Z,3.56
2022-08-19T00:16:25.179Z,4.14
2022-08-19T00:17:28.674Z,4.37
2022-08-19T00:18:31.809Z,3.65
2022-08-19T00:19:35.711Z,4.61
2022-08-19T00:20:39.311Z,3.93
2022-08-19T00:21:41.964Z,3.95
2022-08-19T00:22:46.493Z,3.59
2022-08-19T00:23:48.870Z,3.92
2022-08-19T00:24:51.177Z,4.36
2022-08-19T00:25:54.095Z,3.54
2022-08-19T00:26:56.868Z,3.89
2022-08-19T00:28:00.063Z,4.09
2022-08-19T00:29:03.437Z,4.11
2022-08-19T00:30:08.450Z,3.78
2022-08-19T00:31:11.026Z,3.72
2022-08-19T00:32:13.377Z,4.11
2022-08-19T00:33:16.347Z,3.65
2022-08-19T00:34:18.913Z,4.53
2022-08-19T00:35:21.911Z,4.37
2022-08-19T00:36:26.025Z,4.60
2022-08-19T00:37:28.369Z,4.39
2022-08-19T00:38:38.032Z,4.65
2022-08-19T00:39:35.978Z,5.08
2022-08-19T00:40:38.774Z,5.19
2022-08-19T00:41:42.280Z,4.67
2022-08-19T00:42:44.882Z,4.36
2022-08-19T00:44:10.495Z,4.19
2022-08-19T00:45:16.435Z,4.38
2022-08-19T00:46:19.322Z,4.09
2022-08-19T00:47:21.773Z,4.31
2022-08-19T00:48:24.033Z,4.25
2022-08-19T00:49:39.202Z,4.22
2022-08-19T00:50:51.717Z,4.65
2022-08-19T00:51:51.519Z,4.41
2022-08-19T00:52:54.325Z,4.84
2022-08-19T00:53:58.981Z,4.78
2022-08-19T00:55:05.338Z,5.01
2022-08-19T00:56:08.690Z,5.05
2022-08-19T00:57:14.570Z,4.85
2022-08-19T00:58:20.326Z,5.19
2022-08-19T01:00:02.014Z,4.02
2022-08-19T01:00:30.121Z,4.54
2022-08-19T01:01:33.163Z,4.38
2022-08-19T01:02:35.760Z,5.00
2022-08-19T01:03:56.808Z,4.96
2022-08-19T01:04:43.087Z,5.05
2022-08-19T01:05:47.994Z,4.20
2022-08-19T01:06:50.580Z,4.62
2022-08-19T01:07:54.269Z,4.07
2022-08-19T01:08:56.727Z,4.66
2022-08-19T01:10:01.244Z,4.54
2022-08-19T01:11:05.242Z,4.28
2022-08-19T01:12:08.732Z,4.34
2022-08-19T01:13:13.446Z,4.82
2022-08-19T01:14:16.285Z,4.67
2022-08-19T01:15:22.167Z,4.16
2022-08-19T01:16:28.952Z,4.69
2022-08-19T01:17:31.809Z,4.70
2022-08-19T01:18:37.659Z,4.68
2022-08-19T01:19:44.377Z,5.21
2022-08-19T01:20:47.804Z,5.11
2022-08-19T01:22:14.127Z,4.67
2022-08-19T01:23:11.780Z,4.84
2022-08-19T01:24:14.679Z,5.12
2022-08-19T01:25:20.492Z,4.77
2022-08-19T01:26:25.319Z,4.36
2022-08-19T01:27:44.168Z,5.02
2022-08-19T01:28:51.852Z,4.68
2022-08-19T01:29:55.113Z,4.33
2022-08-19T01:30:58.723Z,4.97
2022-08-19T01:32:02.114Z,4.39
2022-08-19T01:33:04.395Z,4.78
2022-08-19T01:34:07.748Z,4.17
2022-08-19T01:35:12.077Z,4.76
2022-08-19T01:36:25.495Z,5.56
2022-08-19T01:37:27.982Z,4.61
2022-08-19T01:38:30.312Z,4.97
2022-08-19T01:39:32.849Z,4.97
2022-08-19T01:40:37.828Z,5.35
2022-08-19T01:41:40.433Z,4.43
2022-08-19T01:42:44.576Z,5.05
2022-08-19T01:44:09.938Z,4.50
2022-08-19T01:44:51.305Z,5.33
2022-08-19T01:45:53.609Z,5.41
2022-08-19T01:46:56.295Z,5.87
2022-08-19T01:48:02.034Z,5.41
2022-08-19T01:49:05.829Z,5.72
2022-08-19T01:50:10.838Z,5.54
2022-08-19T01:51:14.023Z,5.74
2022-08-19T01:52:16.482Z,6.04
2022-08-19T01:53:18.848Z,4.93
2022-08-19T01:54:27.535Z,5.43
2022-08-19T01:55:28.489Z,5.80
2022-08-19T01:56:31.156Z,5.67
2022-08-19T01:57:33.737Z,6.33
2022-08-19T01:58:42.505Z,6.75
2022-08-19T01:59:46.024Z,7.49
2022-08-19T02:00:48.692Z,6.58
2022-08-19T02:01:51.022Z,6.92
2022-08-19T02:02:54.001Z,6.13
2022-08-19T02:03:56.897Z,6.51
2022-08-19T02:05:00.602Z,6.34
2022-08-19T02:06:03.804Z,6.02
2022-08-19T02:07:07.386Z,5.99
2022-08-19T02:08:10.451Z,6.57
2022-08-19T02:09:13.039Z,6.68
2022-08-19T02:10:19.442Z,6.19
2022-08-19T02:11:25.123Z,5.90
2022-08-19T02:12:27.583Z,5.92
2022-08-19T02:13:30.462Z,5.34
2022-08-19T02:14:35.399Z,6.22
2022-08-19T02:15:38.238Z,5.95
2022-08-19T02:16:41.648Z,5.79
2022-08-19T02:17:44.172Z,6.75
2022-08-19T02:18:47.288Z,5.18
2022-08-19T02:19:49.646Z,5.37
2022-08-19T02:20:52.316Z,5.37
2022-08-19T02:21:54.999Z,6.03
2022-08-19T02:22:57.567Z,5.28
2022-08-19T02:24:01.573Z,5.32
2022-08-19T02:25:04.741Z,5.12
2022-08-19T02:26:07.710Z,5.33
2022-08-19T02:27:10.339Z,5.66
2022-08-19T02:28:16.746Z,5.18
2022-08-19T02:29:17.877Z,4.37
2022-08-19T02:30:22.996Z,4.69
2022-08-19T02:31:25.892Z,4.74
2022-08-19T02:32:28.543Z,4.58
2022-08-19T02:33:30.903Z,5.28
2022-08-19T02:34:34.205Z,5.08
2022-08-19T02:35:36.656Z,4.85
2022-08-19T02:36:42.410Z,5.14
2022-08-19T02:37:44.768Z,4.58
2022-08-19T02:38:54.513Z,4.42
2022-08-19T02:39:52.231Z,4.42
2022-08-19T02:41:01.384Z,4.71
2022-08-19T02:42:05.738Z,4.38
2022-08-19T02:43:09.636Z,5.37
2022-08-19T02:44:26.607Z,4.50
2022-08-19T02:45:18.686Z,4.77
2022-08-19T02:46:25.977Z,4.49
2022-08-19T02:47:28.510Z,5.21
2022-08-19T02:48:30.803Z,5.15
2022-08-19T02:49:34.749Z,4.79
2022-08-19T02:50:40.856Z,4.72
2022-08-19T02:51:46.043Z,4.92
2022-08-19T02:52:48.803Z,5.14
2022-08-19T02:53:52.142Z,4.83
2022-08-19T02:54:54.599Z,4.99
2022-08-19T02:55:57.251Z,5.13
2022-08-19T02:57:00.041Z,5.41
2022-08-19T02:58:02.507Z,4.82
2022-08-19T02:59:07.428Z,5.87
2022-08-19T03:00:11.924Z,4.15
2022-08-19T03:01:23.823Z,5.39
2022-08-19T03:02:26.312Z,5.21
2022-08-19T03:03:28.756Z,5.40
2022-08-19T03:04:31.118Z,4.63
2022-08-19T03:05:46.927Z,4.68
2022-08-19T03:08:11.384Z,4.93
2022-08-19T03:09:14.684Z,4.61
2022-08-19T03:10:17.950Z,5.28
2022-08-19T03:11:23.203Z,4.79
2022-08-19T03:12:25.861Z,4.73
2022-08-19T03:13:28.175Z,5.00
2022-08-19T03:14:34.566Z,4.75
2022-08-19T03:15:43.411Z,4.59
2022-08-19T03:16:49.652Z,4.43
2022-08-19T03:17:52.097Z,4.65
2022-08-19T03:18:56.202Z,5.52
2022-08-19T03:19:58.870Z,4.76
2022-08-19T03:21:02.844Z,4.62
2022-08-19T03:22:05.436Z,4.71
2022-08-19T03:23:07.798Z,4.78
2022-08-19T03:24:11.459Z,4.39
2022-08-19T03:25:13.959Z,4.66
2022-08-19T03:26:17.549Z,4.51
2022-08-19T03:27:20.120Z,4.94
2022-08-19T03:28:22.482Z,4.71
2022-08-19T03:29:30.822Z,4.55
2022-08-19T03:30:34.473Z,5.13
2022-08-19T03:31:43.584Z,5.14
2022-08-19T03:32:45.379Z,4.35
2022-08-19T03:33:47.833Z,4.61
2022-08-19T03:34:52.117Z,4.80
2022-08-19T03:36:06.970Z,4.50
2022-08-19T03:37:11.754Z,5.16
2022-08-19T03:38:16.082Z,4.63
2022-08-19T03:39:18.633Z,4.68
2022-08-19T03:40:23.073Z,4.51
2022-08-19T03:42:49.437Z,4.98
2022-08-19T03:43:52.803Z,4.56
2022-08-19T03:44:55.386Z,4.45
2022-08-19T03:46:03.037Z,4.89
2022-08-19T03:47:05.677Z,4.38
2022-08-19T03:48:08.070Z,5.15
2022-08-19T03:49:10.544Z,4.83
2022-08-19T03:50:16.819Z,4.89
2022-08-19T03:51:30.733Z,4.83
2022-08-19T03:52:26.552Z,4.81
2022-08-19T03:53:30.337Z,4.28
2022-08-19T03:54:32.798Z,4.42
2022-08-19T03:55:41.208Z,4.17
2022-08-19T03:56:45.508Z,4.50
2022-08-19T03:57:47.946Z,4.55
2022-08-19T03:58:50.966Z,4.38
2022-08-19T03:59:53.392Z,3.86
2022-08-19T04:00:57.427Z,4.85
2022-08-19T04:02:02.756Z,4.89
2022-08-19T04:03:05.305Z,4.00
2022-08-19T04:04:07.583Z,4.36
2022-08-19T04:05:11.801Z,4.66
2022-08-19T04:06:20.387Z,4.93
2022-08-19T04:07:23.268Z,5.57
2022-08-19T04:08:25.526Z,3.95
2022-08-19T04:09:28.714Z,4.28
2022-08-19T04:10:31.155Z,4.62
2022-08-19T04:11:43.725Z,4.57
2022-08-19T04:12:44.683Z,4.50
2022-08-19T04:13:47.348Z,4.25
2022-08-19T04:14:49.748Z,5.08
2022-08-19T04:15:52.092Z,5.05
2022-08-19T04:16:54.790Z,3.97
2022-08-19T04:17:57.293Z,4.41
2022-08-19T04:19:04.829Z,4.05
2022-08-19T04:20:08.523Z,4.49
2022-08-19T04:21:14.350Z,4.34
2022-08-19T04:22:16.918Z,4.33
2022-08-19T04:23:19.549Z,4.44
2022-08-19T04:24:23.575Z,4.47
2022-08-19T04:25:25.994Z,4.26
2022-08-19T04:26:33.451Z,4.44
2022-08-19T04:27:35.798Z,4.31
2022-08-19T04:28:38.423Z,4.06
2022-08-19T04:29:40.890Z,3.89
2022-08-19T04:30:46.565Z,3.94
2022-08-19T04:31:50.108Z,4.08
2022-08-19T04:32:52.843Z,4.11
2022-08-19T04:33:57.239Z,4.01
2022-08-19T04:35:02.423Z,3.92
2022-08-19T04:36:04.233Z,4.00
2022-08-19T04:37:07.042Z,3.76
2022-08-19T04:38:10.070Z,3.35
2022-08-19T04:41:28.098Z,3.42
2022-08-19T04:42:30.897Z,3.93
2022-08-19T04:43:36.031Z,4.63
2022-08-19T04:44:44.968Z,4.35
2022-08-19T04:45:46.443Z,4.03
2022-08-19T04:46:51.524Z,4.80
2022-08-19T04:47:58.729Z,4.39
2022-08-19T04:49:09.096Z,3.61
2022-08-19T04:50:08.507Z,4.68
2022-08-19T04:51:12.985Z,4.17
2022-08-19T04:52:15.600Z,4.46
2022-08-19T04:53:18.255Z,3.69
2022-08-19T04:54:34.775Z,3.96
2022-08-19T04:55:27.374Z,4.10
2022-08-19T04:56:30.160Z,4.26
2022-08-19T04:57:32.534Z,4.13
2022-08-19T04:58:36.317Z,4.31
2022-08-19T04:59:39.554Z,3.70
2022-08-19T05:00:42.202Z,4.37
2022-08-19T05:01:44.904Z,4.29
2022-08-19T05:02:47.333Z,4.41
2022-08-19T05:03:50.389Z,4.03
2022-08-19T05:04:58.018Z,3.39
2022-08-19T05:06:08.517Z,3.81
2022-08-19T05:07:11.082Z,4.90
2022-08-19T05:08:15.498Z,3.97
2022-08-19T05:09:18.874Z,4.09
2022-08-19T05:10:22.371Z,4.15
2022-08-19T05:11:28.351Z,3.65
2022-08-19T05:12:30.779Z,4.06
2022-08-19T05:13:33.414Z,3.85
2022-08-19T05:14:35.823Z,3.90
2022-08-19T05:15:38.177Z,3.71
2022-08-19T05:16:41.070Z,3.96
2022-08-19T05:17:43.322Z,3.61
2022-08-19T05:18:46.475Z,3.88
2022-08-19T05:19:48.753Z,3.74
2022-08-19T05:20:51.403Z,4.32
2022-08-19T05:21:54.688Z,4.37
2022-08-19T05:22:57.474Z,4.44
2022-08-19T05:24:00.448Z,3.94
2022-08-19T05:25:13.037Z,4.37
2022-08-19T05:26:11.898Z,4.03
2022-08-19T05:27:14.909Z,4.44
2022-08-19T05:28:17.672Z,3.86
2022-08-19T05:29:22.464Z,4.21
2022-08-19T05:30:33.379Z,4.35
2022-08-19T05:31:30.632Z,3.95
2022-08-19T05:32:34.766Z,3.91
2022-08-19T05:33:37.476Z,3.98
2022-08-19T05:34:39.782Z,3.99
2022-08-19T05:35:41.999Z,3.86
2022-08-19T05:36:45.881Z,3.81
2022-08-19T05:37:48.272Z,3.79
2022-08-19T05:38:53.183Z,3.94
2022-08-19T05:39:55.798Z,4.64
2022-08-19T05:40:58.644Z,4.57
2022-08-19T05:42:03.750Z,4.28
2022-08-19T05:43:07.853Z,3.67
2022-08-19T05:44:10.595Z,4.15
2022-08-19T05:45:13.091Z,3.89
2022-08-19T05:46:19.138Z,3.88
2022-08-19T05:47:23.614Z,4.00
2022-08-19T05:48:26.433Z,3.57
2022-08-19T05:49:29.695Z,3.63
2022-08-19T05:50:32.168Z,3.51
2022-08-19T05:51:36.464Z,3.85
2022-08-19T05:52:39.205Z,4.32
2022-08-19T05:53:43.653Z,3.42
2022-08-19T05:54:46.976Z,4.50
2022-08-19T05:55:50.714Z,4.05
2022-08-19T05:56:54.033Z,4.24
2022-08-19T05:57:56.459Z,4.28
2022-08-19T05:58:59.321Z,4.17
2022-08-19T06:00:04.203Z,4.29
2022-08-19T06:01:12.178Z,4.37
2022-08-19T06:02:14.607Z,3.78
2022-08-19T06:03:17.332Z,3.70
2022-08-19T06:04:20.596Z,3.87
2022-08-19T06:05:22.866Z,4.04
2022-08-19T06:06:25.463Z,4.24
2022-08-19T06:07:28.290Z,4.24
2022-08-19T06:08:33.682Z,4.27
2022-08-19T06:09:35.550Z,4.56
2022-08-19T06:10:37.951Z,4.25
2022-08-19T06:11:43.824Z,3.85
2022-08-19T06:12:46.275Z,3.79
2022-08-19T06:13:52.293Z,4.08
2022-08-19T06:15:01.169Z,5.14
2022-08-19T06:16:01.317Z,4.24
2022-08-19T06:17:07.070Z,4.07
2022-08-19T06:18:08.318Z,4.29
2022-08-19T06:19:16.611Z,4.37
2022-08-19T06:20:39.768Z,4.62
2022-08-19T06:21:29.077Z,4.12
2022-08-19T06:22:31.747Z,4.14
2022-08-19T06:23:35.194Z,4.81
2022-08-19T06:24:39.162Z,4.24
2022-08-19T06:25:43.581Z,3.75
2022-08-19T06:28:14.083Z,3.69
2022-08-19T06:28:59.530Z,3.96
2022-08-19T06:30:04.923Z,4.39
2022-08-19T06:31:10.401Z,4.29
2022-08-19T06:32:14.851Z,5.38
2022-08-19T06:33:17.346Z,4.55
2022-08-19T06:34:26.407Z,3.71
2022-08-19T06:35:28.957Z,3.83
2022-08-19T06:36:34.984Z,4.35
2022-08-19T06:37:43.689Z,4.81
2022-08-19T06:38:45.298Z,4.72
2022-08-19T06:39:49.899Z,4.05
2022-08-19T06:41:02.444Z,4.12
2022-08-19T06:42:07.921Z,4.29
2022-08-19T06:43:12.286Z,4.11
2022-08-19T06:44:18.564Z,4.50
2022-08-19T06:45:25.166Z,4.63
2022-08-19T06:46:29.701Z,4.01
2022-08-19T06:47:35.204Z,4.30
2022-08-19T06:48:39.506Z,4.74
2022-08-19T06:49:43.074Z,3.86
2022-08-19T06:50:47.477Z,4.20
2022-08-19T06:51:50.776Z,4.08
2022-08-19T06:52:54.521Z,4.31
2022-08-19T06:53:58.024Z,3.79
2022-08-19T06:55:01.484Z,4.05
2022-08-19T06:56:05.930Z,4.67
2022-08-19T06:57:11.987Z,4.76
2022-08-19T06:58:14.530Z,4.08
2022-08-19T06:59:21.620Z,4.39
2022-08-19T07:00:25.526Z,4.17
2022-08-19T07:01:28.683Z,4.29
2022-08-19T07:02:31.463Z,4.92
2022-08-19T07:03:35.624Z,3.91
2022-08-19T07:04:42.185Z,3.40
2022-08-19T07:05:45.492Z,3.66
2022-08-19T07:06:55.321Z,5.45
2022-08-19T07:07:54.094Z,3.54
2022-08-19T07:08:58.993Z,4.42
2022-08-19T07:10:03.704Z,4.20
2022-08-19T07:11:11.287Z,4.17
2022-08-19T07:12:14.466Z,3.52
2022-08-19T07:13:17.012Z,4.33
2022-08-19T07:14:25.594Z,4.32
2022-08-19T07:15:28.030Z,4.48
2022-08-19T07:16:31.949Z,3.88
2022-08-19T07:17:34.839Z,4.09
2022-08-19T07:18:38.366Z,3.96
2022-08-19T07:19:41.936Z,4.49
2022-08-19T07:20:47.020Z,4.54
2022-08-19T07:21:51.700Z,4.35
2022-08-19T07:22:55.412Z,3.76
2022-08-19T07:24:02.914Z,3.85
2022-08-19T07:25:08.081Z,3.46
2022-08-19T07:26:15.179Z,4.12
2022-08-19T07:27:17.713Z,4.60
2022-08-19T07:28:24.391Z,4.13
2022-08-19T07:29:25.728Z,4.14
2022-08-19T07:30:31.573Z,3.79
2022-08-19T07:31:37.124Z,3.65
2022-08-19T07:32:40.550Z,4.12
2022-08-19T07:33:42.963Z,4.21
2022-08-19T07:34:46.450Z,4.42
2022-08-19T07:35:50.405Z,4.36
2022-08-19T07:36:54.260Z,4.15
2022-08-19T07:37:56.727Z,3.78
2022-08-19T07:39:01.902Z,3.91
2022-08-19T07:40:08.122Z,4.06
2022-08-19T07:41:13.589Z,3.78
2022-08-19T07:42:16.699Z,3.92
2022-08-19T07:43:18.975Z,3.91
2022-08-19T07:44:22.665Z,4.36
2022-08-19T07:45:25.266Z,4.31
2022-08-19T07:46:33.677Z,4.69
2022-08-19T07:47:47.915Z,4.06
2022-08-19T07:48:43.259Z,4.30
2022-08-19T07:49:45.654Z,3.99
2022-08-19T07:50:48.004Z,3.56
2022-08-19T07:53:03.535Z,4.19
2022-08-19T07:54:05.919Z,3.63
2022-08-19T07:55:42.086Z,3.58
2022-08-19T07:56:20.249Z,5.60
2022-08-19T07:57:25.013Z,4.56
2022-08-19T07:58:27.315Z,4.41
2022-08-19T07:59:30.173Z,4.88
2022-08-19T08:00:34.710Z,4.85
2022-08-19T08:01:41.839Z,4.54
2022-08-19T08:02:42.467Z,4.63
2022-08-19T08:03:45.525Z,3.95
2022-08-19T08:04:49.638Z,3.89
2022-08-19T08:05:51.830Z,4.07
2022-08-19T08:06:54.666Z,4.13
2022-08-19T08:07:57.654Z,4.31
2022-08-19T08:09:01.161Z,4.69
2022-08-19T08:10:06.421Z,4.93
2022-08-19T08:11:11.077Z,4.27
2022-08-19T08:12:33.617Z,4.69
2022-08-19T08:13:25.505Z,4.16
2022-08-19T08:14:44.702Z,3.93
2022-08-19T08:15:49.123Z,3.52
2022-08-19T08:16:57.633Z,4.01
2022-08-19T08:18:01.757Z,3.51
2022-08-19T08:19:18.211Z,3.85
2022-08-19T08:20:14.459Z,3.94
2022-08-19T08:21:17.505Z,4.28
2022-08-19T08:22:21.508Z,3.58
2022-08-19T08:23:24.259Z,3.06
2022-08-19T08:24:29.926Z,4.23
2022-08-19T08:25:35.315Z,3.72
2022-08-19T08:26:38.509Z,3.89
2022-08-19T08:27:45.196Z,3.97
2022-08-19T08:28:49.463Z,3.85
2022-08-19T08:29:51.922Z,3.36
2022-08-19T08:30:54.172Z,3.92
2022-08-19T08:31:59.618Z,3.71
2022-08-19T08:33:02.651Z,4.31
2022-08-19T08:34:05.241Z,3.40
2022-08-19T08:35:10.372Z,3.74
2022-08-19T08:36:13.418Z,4.25
2022-08-19T08:37:16.254Z,3.84
2022-08-19T08:38:18.964Z,3.67
2022-08-19T08:39:21.760Z,4.11
2022-08-19T08:40:31.084Z,3.97
2022-08-19T08:41:43.864Z,4.43
2022-08-19T08:42:52.555Z,5.43
2022-08-19T08:43:56.479Z,5.30
2022-08-19T08:45:01.960Z,4.92
2022-08-19T08:46:07.990Z,5.04
2022-08-19T08:47:15.793Z,5.71
2022-08-19T08:48:23.950Z,4.37
2022-08-19T08:49:36.024Z,4.25
2022-08-19T08:50:43.482Z,4.97
2022-08-19T08:51:59.261Z,5.01
2022-08-19T08:52:59.279Z,3.89
2022-08-19T08:54:05.390Z,4.41
2022-08-19T08:56:21.209Z,3.96
2022-08-19T08:57:45.491Z,4.12
2022-08-19T08:59:00.299Z,4.47
2022-08-19T09:00:06.482Z,4.61
2022-08-19T09:01:11.948Z,4.56
2022-08-19T09:02:14.335Z,4.11
2022-08-19T09:03:23.440Z,4.45
2022-08-19T09:04:25.842Z,4.28
2022-08-19T09:06:57.683Z,4.74
2022-08-19T09:08:06.791Z,4.35
2022-08-19T09:09:19.107Z,5.53
2022-08-19T09:10:33.214Z,4.83
2022-08-19T09:11:56.787Z,4.59
2022-08-19T09:13:19.934Z,3.97
2022-08-19T09:14:53.520Z,3.96
2022-08-19T09:17:13.371Z,4.31
2022-08-19T09:18:19.436Z,4.12
2022-08-19T09:19:22.539Z,3.88
2022-08-19T09:20:26.110Z,3.85
2022-08-19T09:21:30.587Z,4.37
2022-08-19T09:22:33.833Z,4.28
2022-08-19T09:23:37.420Z,4.21
2022-08-19T09:24:39.762Z,4.59
2022-08-19T09:25:42.110Z,4.03
2022-08-19T09:26:48.208Z,4.42
2022-08-19T09:27:51.148Z,3.61
2022-08-19T09:28:53.992Z,4.67
2022-08-19T09:29:56.267Z,4.15
2022-08-19T09:30:58.752Z,4.14
2022-08-19T09:32:01.417Z,4.69
2022-08-19T09:33:03.709Z,4.07
2022-08-19T09:34:06.761Z,4.34
2022-08-19T09:35:10.157Z,3.88
2022-08-19T09:36:31.087Z,3.98
2022-08-19T09:37:21.899Z,4.21
2022-08-19T09:38:26.151Z,4.42
2022-08-19T09:39:35.971Z,4.02
2022-08-19T09:40:38.239Z,4.16
2022-08-19T09:41:39.572Z,4.63
2022-08-19T09:42:50.178Z,4.27
2022-08-19T09:43:53.106Z,3.96
2022-08-19T09:44:55.722Z,3.93
2022-08-19T09:45:58.278Z,4.23
2022-08-19T09:47:01.290Z,4.43
2022-08-19T09:48:04.316Z,4.15
2022-08-19T09:49:07.001Z,4.49
2022-08-19T09:50:12.337Z,4.17
2022-08-19T09:51:24.937Z,4.47
2022-08-19T09:52:32.649Z,3.94
2022-08-19T09:53:31.456Z,4.09
2022-08-19T09:54:35.365Z,4.00
2022-08-19T09:55:44.023Z,4.87
2022-08-19T09:56:47.247Z,3.94
2022-08-19T09:57:49.687Z,4.39
2022-08-19T09:58:52.543Z,4.69
2022-08-19T09:59:55.262Z,4.24
2022-08-19T10:00:59.469Z,5.08
2022-08-19T10:02:03.904Z,4.66
2022-08-19T10:03:06.246Z,4.99
2022-08-19T10:04:09.546Z,4.49
2022-08-19T10:05:13.857Z,4.63
2022-08-19T10:06:18.719Z,4.15
2022-08-19T10:07:22.926Z,3.88
2022-08-19T10:08:30.687Z,5.33
2022-08-19T10:09:34.447Z,4.30
2022-08-19T10:10:37.139Z,4.61
2022-08-19T10:11:52.563Z,4.45
2022-08-19T10:12:49.196Z,4.53
2022-08-19T10:13:51.909Z,4.29
2022-08-19T10:14:54.237Z,3.99
2022-08-19T10:16:06.227Z,4.61
2022-08-19T10:17:19.131Z,3.97
2022-08-19T10:18:12.739Z,4.31
2022-08-19T10:19:15.011Z,4.33
2022-08-19T10:20:20.893Z,4.26
2022-08-19T10:21:29.355Z,4.19
2022-08-19T10:22:34.095Z,4.19
2022-08-19T10:23:38.666Z,3.82
2022-08-19T10:24:41.131Z,4.04
2022-08-19T10:25:44.491Z,3.60
2022-08-19T10:26:47.593Z,4.31
2022-08-19T10:27:49.821Z,4.18
2022-08-19T10:28:54.770Z,4.11
2022-08-19T10:29:57.174Z,3.73
2022-08-19T10:31:06.296Z,3.69
2022-08-19T10:32:10.042Z,4.09
2022-08-19T10:33:12.830Z,4.29
2022-08-19T10:34:27.563Z,3.44
2022-08-19T10:35:21.887Z,3.66
2022-08-19T10:36:28.508Z,3.51
2022-08-19T10:37:32.756Z,3.24
2022-08-19T10:38:36.341Z,3.62
2022-08-19T10:39:43.342Z,3.66
2022-08-19T10:40:43.732Z,3.94
2022-08-19T10:41:46.024Z,4.15
2022-08-19T10:42:48.330Z,3.26
2022-08-19T10:43:52.800Z,3.65
2022-08-19T10:44:55.241Z,3.59
2022-08-19T10:45:57.468Z,3.95
2022-08-19T10:47:00.117Z,3.85
2022-08-19T10:48:03.689Z,3.63
2022-08-19T10:49:06.375Z,3.27
2022-08-19T10:50:09.019Z,3.50
2022-08-19T10:51:22.652Z,3.65
2022-08-19T10:52:20.268Z,3.63
2022-08-19T10:53:23.187Z,3.28
2022-08-19T10:54:31.474Z,3.45
2022-08-19T10:55:30.717Z,4.28
2022-08-19T10:56:34.441Z,3.27
2022-08-19T10:58:41.174Z,3.55
2022-08-19T10:59:45.339Z,3.78
2022-08-19T11:00:58.881Z,3.59
2022-08-19T11:02:06.305Z,3.55
2022-08-19T11:03:11.825Z,3.43
2022-08-19T11:04:14.863Z,4.05
2022-08-19T11:05:17.594Z,3.24
2022-08-19T11:06:21.353Z,3.51
2022-08-19T11:07:23.864Z,3.12
2022-08-19T11:08:26.168Z,3.97
2022-08-19T11:09:34.005Z,3.53
2022-08-19T11:10:33.200Z,3.85
2022-08-19T11:11:38.454Z,3.43
2022-08-19T11:12:41.043Z,3.90
2022-08-19T11:13:44.288Z,4.31
2022-08-19T11:14:46.876Z,3.29
2022-08-19T11:15:57.981Z,3.72
2022-08-19T11:18:04.112Z,3.62
2022-08-19T11:19:10.048Z,3.56
2022-08-19T11:20:14.982Z,4.18
2022-08-19T11:21:21.095Z,3.92
2022-08-19T11:22:24.881Z,4.11
2022-08-19T11:23:29.043Z,4.16
2022-08-19T11:24:32.347Z,3.21
2022-08-19T11:25:34.869Z,3.68
2022-08-19T11:26:40.615Z,3.59
2022-08-19T11:27:43.305Z,3.04
2022-08-19T11:28:46.057Z,3.27
2022-08-19T11:29:48.641Z,2.92
2022-08-19T11:30:51.473Z,3.92
2022-08-19T11:31:54.536Z,3.23
2022-08-19T11:32:58.776Z,4.12
2022-08-19T11:34:03.942Z,3.19
2022-08-19T11:35:06.907Z,3.51
2022-08-19T11:36:11.636Z,3.94
2022-08-19T11:37:16.065Z,3.37
2022-08-19T11:38:18.364Z,3.37
2022-08-19T11:39:22.315Z,3.43
2022-08-19T11:40:25.074Z,3.41
2022-08-19T11:41:27.912Z,3.90
2022-08-19T11:42:30.793Z,3.21
2022-08-19T11:43:37.327Z,3.44
2022-08-19T11:44:38.553Z,3.34
2022-08-19T11:45:42.821Z,3.23
2022-08-19T11:46:47.160Z,3.37
2022-08-19T11:47:49.806Z,3.41
2022-08-19T11:48:52.112Z,3.45
2022-08-19T11:49:54.518Z,3.32
2022-08-19T11:50:56.958Z,3.46
2022-08-19T11:51:59.929Z,3.17
2022-08-19T11:53:02.185Z,3.56
2022-08-19T11:54:06.145Z,3.27
2022-08-19T11:55:09.189Z,3.49
2022-08-19T11:56:12.542Z,3.16
2022-08-19T11:57:14.770Z,3.67
2022-08-19T11:58:19.177Z,3.33
2022-08-19T11:59:23.633Z,3.61
2022-08-19T12:00:26.795Z,3.22
2022-08-19T12:01:29.534Z,3.33
2022-08-19T12:02:31.901Z,3.46
2022-08-19T12:03:34.771Z,3.55
2022-08-19T12:04:37.574Z,3.10
2022-08-19T12:05:42.937Z,3.88
2022-08-19T12:06:49.200Z,3.82
2022-08-19T12:07:51.520Z,3.54
2022-08-19T12:08:53.985Z,3.68
2022-08-19T12:09:56.594Z,3.87
2022-08-19T12:11:01.922Z,3.79
2022-08-19T12:12:04.290Z,3.64
2022-08-19T12:13:10.581Z,3.47
2022-08-19T12:14:14.663Z,3.54
2022-08-19T12:15:17.422Z,3.87
2022-08-19T12:16:23.702Z,3.48
2022-08-19T12:17:27.221Z,3.89
2022-08-19T12:18:30.010Z,4.22
2022-08-19T12:19:32.576Z,4.15
2022-08-19T12:20:37.951Z,3.60
2022-08-19T12:21:43.004Z,3.55
2022-08-19T12:22:45.307Z,3.58
2022-08-19T12:23:51.685Z,3.54
2022-08-19T12:24:53.505Z,3.47
2022-08-19T12:25:57.550Z,3.75
2022-08-19T12:27:00.914Z,4.46
2022-08-19T12:28:05.110Z,3.43
2022-08-19T12:29:07.707Z,3.62
2022-08-19T12:30:14.198Z,3.71
2022-08-19T12:31:16.908Z,4.01
2022-08-19T12:32:19.158Z,3.80
2022-08-19T12:33:24.104Z,4.17
2022-08-19T12:34:26.563Z,3.55
2022-08-19T12:35:28.910Z,3.59
2022-08-19T12:36:31.777Z,3.59
2022-08-19T12:37:37.179Z,3.49
2022-08-19T12:38:43.933Z,4.72
2022-08-19T12:39:47.938Z,3.45
2022-08-19T12:40:58.336Z,3.54
2022-08-19T12:41:58.409Z,3.54
2022-08-19T12:43:01.462Z,3.56
2022-08-19T12:44:05.769Z,3.53
2022-08-19T12:45:12.000Z,3.27
2022-08-19T12:46:15.212Z,3.51
2022-08-19T12:47:20.784Z,3.38
2022-08-19T12:48:33.481Z,3.54
2022-08-19T12:49:52.740Z,3.89
2022-08-19T12:50:33.737Z,3.56
2022-08-19T12:51:36.364Z,3.53
2022-08-19T12:52:39.061Z,3.67
2022-08-19T12:53:41.900Z,3.49
2022-08-19T12:54:44.360Z,5.19
2022-08-19T12:55:46.968Z,3.65
2022-08-19T12:56:50.078Z,3.63
2022-08-19T12:57:52.485Z,3.85
2022-08-19T12:58:54.767Z,4.35
2022-08-19T12:59:57.056Z,4.11
2022-08-19T13:00:59.491Z,4.35
2022-08-19T13:02:02.323Z,3.84
2022-08-19T13:03:04.772Z,4.70
2022-08-19T13:04:07.760Z,4.07
2022-08-19T13:05:12.874Z,3.97
2022-08-19T13:06:15.987Z,3.78
2022-08-19T13:07:20.071Z,3.82
2022-08-19T13:08:24.472Z,3.98
2022-08-19T13:09:26.837Z,3.80
2022-08-19T13:10:33.555Z,3.63
2022-08-19T13:11:37.044Z,4.02
2022-08-19T13:12:40.179Z,3.67
2022-08-19T13:15:13.074Z,4.16
2022-08-19T13:16:21.669Z,3.57
2022-08-19T13:17:24.046Z,3.61
2022-08-19T13:18:26.508Z,4.04
2022-08-19T13:19:28.991Z,3.68
2022-08-19T13:20:33.419Z,3.98
2022-08-19T13:21:36.189Z,3.90
2022-08-19T13:22:39.504Z,3.87
2022-08-19T13:23:42.703Z,3.70
2022-08-19T13:24:47.469Z,3.71
2022-08-19T13:26:00.351Z,3.63
2022-08-19T13:27:08.902Z,3.80
2022-08-19T13:28:11.992Z,3.08
2022-08-19T13:29:15.552Z,3.61
2022-08-19T13:30:21.486Z,4.32
2022-08-19T13:31:25.943Z,3.63
2022-08-19T13:32:30.397Z,4.36
2022-08-19T13:33:33.513Z,3.64
2022-08-19T13:34:36.582Z,3.90
2022-08-19T13:35:49.829Z,3.69
2022-08-19T13:36:53.891Z,4.06
2022-08-19T13:37:58.143Z,3.53
2022-08-19T13:39:04.950Z,3.94
2022-08-19T13:40:11.255Z,4.11
2022-08-19T13:41:15.008Z,4.31
2022-08-19T13:42:17.496Z,3.98
2022-08-19T13:43:23.680Z,4.20
2022-08-19T13:44:26.381Z,3.13
2022-08-19T13:45:31.746Z,3.63
2022-08-19T13:46:36.013Z,3.62
2022-08-19T13:47:38.227Z,4.04
2022-08-19T13:48:41.079Z,4.09
2022-08-19T13:49:43.371Z,3.43
2022-08-19T13:50:46.050Z,3.63
2022-08-19T13:51:48.273Z,5.77
2022-08-19T13:52:50.623Z,3.80
2022-08-19T13:53:52.870Z,3.92
2022-08-19T13:54:55.772Z,3.75
2022-08-19T13:55:58.150Z,3.81
2022-08-19T13:57:00.516Z,3.88
2022-08-19T13:58:04.006Z,3.62
2022-08-19T13:59:06.468Z,3.68
2022-08-19T14:00:17.749Z,3.64
2022-08-19T14:01:24.443Z,3.30
2022-08-19T14:02:29.816Z,4.27
2022-08-19T14:03:33.366Z,3.66
2022-08-19T14:04:35.946Z,3.82
2022-08-19T14:05:39.327Z,4.03
2022-08-19T14:06:41.844Z,4.15
2022-08-19T14:07:44.250Z,3.51
2022-08-19T14:08:47.544Z,3.32
2022-08-19T14:09:51.228Z,3.78
2022-08-19T14:10:54.452Z,3.58
2022-08-19T14:11:57.081Z,5.56
2022-08-19T14:13:02.406Z,3.66
2022-08-19T14:14:04.618Z,4.28
2022-08-19T14:15:09.216Z,4.05
2022-08-19T14:16:14.368Z,3.68
2022-08-19T14:17:17.126Z,4.42
2022-08-19T14:18:19.824Z,3.86
2022-08-19T14:19:22.363Z,3.69
2022-08-19T14:20:27.240Z,3.65
2022-08-19T14:21:29.573Z,3.40
2022-08-19T14:22:32.163Z,4.67
2022-08-19T14:23:34.797Z,3.45
2022-08-19T14:24:40.732Z,3.77
2022-08-19T14:25:45.146Z,3.43
2022-08-19T14:26:48.466Z,3.94
2022-08-19T14:27:51.723Z,3.99
2022-08-19T14:28:54.066Z,3.34
2022-08-19T14:29:56.563Z,3.35
2022-08-19T14:30:59.654Z,3.39